sensor_id;sensor_type;location;lat;lon;timestamp;P1;durP1;ratioP1;P2;durP2;ratioP2
62687;SDS011;48752;51.056;17.056;2023-02-07T00:02:16;21.95;;;13.15;;
62687;SDS011;48752;51.056;17.056;2023-02-07T00:04:42;21.67;;;12.25;;
62687;SDS011;48752;51.056;17.056;2023-02-07T00:07:07;21.42;;;13.10;;
62687;SDS011;48752;51.056;17.056;2023-02-07T00:09:32;20.50;;;12.52;;
62687;SDS011;48752;51.056;17.056;2023-02-07T00:12:01;21.42;;;12.48;;
62687;SDS011;48752;51.056;17.056;2023-02-07T00:14:27;21.50;;;12.52;;
62687;SDS011;48752;51.056;17.056;2023-02-07T00:16:52;21.75;;;13.00;;
62687;SDS011;48752;51.056;17.056;2023-02-07T00:19:17;23.83;;;13.20;;
62687;SDS011;48752;51.056;17.056;2023-02-07T00:21:43;22.17;;;12.43;;
62687;SDS011;48752;51.056;17.056;2023-02-07T00:24:08;20.75;;;13.57;;
62687;SDS011;48752;51.056;17.056;2023-02-07T00:26:33;25.42;;;14.07;;
62687;SDS011;48752;51.056;17.056;2023-02-07T00:28:59;25.17;;;16.13;;
62687;SDS011;48752;51.056;17.056;2023-02-07T00:31:26;27.77;;;15.63;;
62687;SDS011;48752;51.056;17.056;2023-02-07T00:33:54;27.45;;;15.02;;
62687;SDS011;48752;51.056;17.056;2023-02-07T00:36:21;28.20;;;14.52;;
62687;SDS011;48752;51.056;17.056;2023-02-07T00:38:48;23.92;;;15.57;;
62687;SDS011;48752;51.056;17.056;2023-02-07T00:41:14;24.88;;;13.95;;
62687;SDS011;48752;51.056;17.056;2023-02-07T00:43:43;24.20;;;13.95;;
62687;SDS011;48752;51.056;17.056;2023-02-07T00:46:09;23.88;;;13.43;;
62687;SDS011;48752;51.056;17.056;2023-02-07T00:48:34;23.40;;;13.38;;
62687;SDS011;48752;51.056;17.056;2023-02-07T00:51:00;21.45;;;13.80;;
62687;SDS011;48752;51.056;17.056;2023-02-07T00:53:26;26.75;;;15.18;;
62687;SDS011;48752;51.056;17.056;2023-02-07T00:55:52;26.98;;;15.90;;
62687;SDS011;48752;51.056;17.056;2023-02-07T00:58:18;24.38;;;14.73;;
62687;SDS011;48752;51.056;17.056;2023-02-07T01:00:43;24.25;;;13.75;;
62687;SDS011;48752;51.056;17.056;2023-02-07T01:03:09;23.70;;;14.40;;
62687;SDS011;48752;51.056;17.056;2023-02-07T01:05:34;22.08;;;12.27;;
62687;SDS011;48752;51.056;17.056;2023-02-07T01:07:59;22.45;;;12.95;;
62687;SDS011;48752;51.056;17.056;2023-02-07T01:10:25;23.30;;;14.40;;
62687;SDS011;48752;51.056;17.056;2023-02-07T01:12:51;22.70;;;12.70;;
62687;SDS011;48752;51.056;17.056;2023-02-07T01:15:16;21.25;;;13.00;;
62687;SDS011;48752;51.056;17.056;2023-02-07T01:17:43;22.70;;;13.68;;
62687;SDS011;48752;51.056;17.056;2023-02-07T01:20:09;27.08;;;14.02;;
62687;SDS011;48752;51.056;17.056;2023-02-07T01:22:35;25.00;;;13.93;;
62687;SDS011;48752;51.056;17.056;2023-02-07T01:25:02;21.70;;;12.73;;
62687;SDS011;48752;51.056;17.056;2023-02-07T01:27:27;23.17;;;13.32;;
62687;SDS011;48752;51.056;17.056;2023-02-07T01:29:53;22.88;;;12.88;;
62687;SDS011;48752;51.056;17.056;2023-02-07T01:32:18;25.35;;;14.15;;
62687;SDS011;48752;51.056;17.056;2023-02-07T01:34:44;22.48;;;13.73;;
62687;SDS011;48752;51.056;17.056;2023-02-07T01:37:09;22.88;;;13.25;;
62687;SDS011;48752;51.056;17.056;2023-02-07T01:39:34;27.08;;;15.50;;
62687;SDS011;48752;51.056;17.056;2023-02-07T01:42:00;24.73;;;14.95;;
62687;SDS011;48752;51.056;17.056;2023-02-07T01:46:51;25.05;;;15.05;;
62687;SDS011;48752;51.056;17.056;2023-02-07T01:49:19;23.90;;;13.95;;
62687;SDS011;48752;51.056;17.056;2023-02-07T01:51:48;26.35;;;14.75;;
62687;SDS011;48752;51.056;17.056;2023-02-07T01:54:16;25.67;;;16.13;;
62687;SDS011;48752;51.056;17.056;2023-02-07T01:56:44;25.08;;;15.93;;
62687;SDS011;48752;51.056;17.056;2023-02-07T01:59:11;30.92;;;15.35;;
62687;SDS011;48752;51.056;17.056;2023-02-07T02:01:37;24.80;;;14.35;;
62687;SDS011;48752;51.056;17.056;2023-02-07T02:04:02;27.42;;;15.15;;
62687;SDS011;48752;51.056;17.056;2023-02-07T02:06:29;22.25;;;14.32;;
62687;SDS011;48752;51.056;17.056;2023-02-07T02:08:57;28.13;;;16.88;;
62687;SDS011;48752;51.056;17.056;2023-02-07T02:14:05;29.67;;;16.17;;
62687;SDS011;48752;51.056;17.056;2023-02-07T02:16:51;28.20;;;14.00;;
62687;SDS011;48752;51.056;17.056;2023-02-07T02:28:07;21.58;;;13.48;;
62687;SDS011;48752;51.056;17.056;2023-02-07T02:33:50;24.50;;;15.55;;
62687;SDS011;48752;51.056;17.056;2023-02-07T02:36:33;27.77;;;15.30;;
62687;SDS011;48752;51.056;17.056;2023-02-07T02:40:06;25.98;;;14.52;;
62687;SDS011;48752;51.056;17.056;2023-02-07T02:42:14;25.70;;;15.23;;
62687;SDS011;48752;51.056;17.056;2023-02-07T02:44:42;22.65;;;13.93;;
62687;SDS011;48752;51.056;17.056;2023-02-07T02:47:11;23.30;;;14.63;;
62687;SDS011;48752;51.056;17.056;2023-02-07T02:49:36;23.88;;;14.05;;
62687;SDS011;48752;51.056;17.056;2023-02-07T02:52:03;23.83;;;15.43;;
62687;SDS011;48752;51.056;17.056;2023-02-07T03:11:06;28.85;;;17.30;;
62687;SDS011;48752;51.056;17.056;2023-02-07T03:21:42;26.20;;;15.70;;
62687;SDS011;48752;51.056;17.056;2023-02-07T03:24:13;24.63;;;14.73;;
62687;SDS011;48752;51.056;17.056;2023-02-07T03:26:41;28.08;;;16.70;;
62687;SDS011;48752;51.056;17.056;2023-02-07T03:29:07;30.02;;;17.13;;
62687;SDS011;48752;51.056;17.056;2023-02-07T03:31:33;29.80;;;17.02;;
62687;SDS011;48752;51.056;17.056;2023-02-07T03:34:02;29.30;;;16.35;;
62687;SDS011;48752;51.056;17.056;2023-02-07T03:36:32;25.98;;;14.55;;
62687;SDS011;48752;51.056;17.056;2023-02-07T03:39:10;29.15;;;15.57;;
62687;SDS011;48752;51.056;17.056;2023-02-07T03:41:40;23.88;;;14.32;;
62687;SDS011;48752;51.056;17.056;2023-02-07T03:44:08;27.85;;;15.00;;
62687;SDS011;48752;51.056;17.056;2023-02-07T03:46:35;25.33;;;14.15;;
62687;SDS011;48752;51.056;17.056;2023-02-07T03:49:01;26.40;;;14.55;;
62687;SDS011;48752;51.056;17.056;2023-02-07T03:51:26;25.50;;;14.73;;
62687;SDS011;48752;51.056;17.056;2023-02-07T03:53:52;23.02;;;14.63;;
62687;SDS011;48752;51.056;17.056;2023-02-07T03:56:17;25.88;;;14.90;;
62687;SDS011;48752;51.056;17.056;2023-02-07T03:58:42;23.33;;;15.60;;
62687;SDS011;48752;51.056;17.056;2023-02-07T04:01:08;21.75;;;14.02;;
62687;SDS011;48752;51.056;17.056;2023-02-07T04:03:33;22.83;;;13.85;;
62687;SDS011;48752;51.056;17.056;2023-02-07T04:05:59;23.33;;;14.25;;
62687;SDS011;48752;51.056;17.056;2023-02-07T04:08:24;25.40;;;14.38;;
62687;SDS011;48752;51.056;17.056;2023-02-07T04:10:57;23.50;;;14.05;;
62687;SDS011;48752;51.056;17.056;2023-02-07T04:13:26;25.23;;;14.77;;
62687;SDS011;48752;51.056;17.056;2023-02-07T04:15:52;26.35;;;15.30;;
62687;SDS011;48752;51.056;17.056;2023-02-07T04:18:17;25.80;;;15.40;;
62687;SDS011;48752;51.056;17.056;2023-02-07T04:20:43;23.70;;;14.75;;
62687;SDS011;48752;51.056;17.056;2023-02-07T04:23:08;27.02;;;16.50;;
62687;SDS011;48752;51.056;17.056;2023-02-07T04:25:34;30.35;;;16.58;;
62687;SDS011;48752;51.056;17.056;2023-02-07T04:27:59;29.17;;;15.68;;
62687;SDS011;48752;51.056;17.056;2023-02-07T04:30:24;27.77;;;16.17;;
62687;SDS011;48752;51.056;17.056;2023-02-07T04:32:50;30.95;;;17.60;;
62687;SDS011;48752;51.056;17.056;2023-02-07T04:35:15;28.60;;;16.85;;
62687;SDS011;48752;51.056;17.056;2023-02-07T04:37:40;30.67;;;16.70;;
62687;SDS011;48752;51.056;17.056;2023-02-07T04:40:06;27.17;;;15.23;;
62687;SDS011;48752;51.056;17.056;2023-02-07T04:42:32;26.92;;;15.30;;
62687;SDS011;48752;51.056;17.056;2023-02-07T04:44:57;25.48;;;15.15;;
62687;SDS011;48752;51.056;17.056;2023-02-07T04:47:22;29.15;;;16.17;;
62687;SDS011;48752;51.056;17.056;2023-02-07T04:49:48;30.67;;;17.83;;
62687;SDS011;48752;51.056;17.056;2023-02-07T04:52:13;26.80;;;16.27;;
62687;SDS011;48752;51.056;17.056;2023-02-07T04:54:39;27.27;;;16.23;;
62687;SDS011;48752;51.056;17.056;2023-02-07T04:57:04;28.10;;;16.15;;
62687;SDS011;48752;51.056;17.056;2023-02-07T04:59:30;30.05;;;16.95;;
62687;SDS011;48752;51.056;17.056;2023-02-07T05:01:57;27.17;;;15.13;;
62687;SDS011;48752;51.056;17.056;2023-02-07T05:04:23;25.65;;;14.70;;
62687;SDS011;48752;51.056;17.056;2023-02-07T05:06:49;24.55;;;15.07;;
62687;SDS011;48752;51.056;17.056;2023-02-07T05:09:16;28.30;;;15.98;;
62687;SDS011;48752;51.056;17.056;2023-02-07T05:11:42;27.05;;;15.07;;
62687;SDS011;48752;51.056;17.056;2023-02-07T05:14:08;24.60;;;15.05;;
62687;SDS011;48752;51.056;17.056;2023-02-07T05:16:34;31.08;;;16.10;;
62687;SDS011;48752;51.056;17.056;2023-02-07T05:19:01;24.85;;;15.23;;
62687;SDS011;48752;51.056;17.056;2023-02-07T05:21:27;25.25;;;14.00;;
62687;SDS011;48752;51.056;17.056;2023-02-07T05:23:55;25.48;;;15.23;;
62687;SDS011;48752;51.056;17.056;2023-02-07T05:26:21;26.10;;;15.18;;
62687;SDS011;48752;51.056;17.056;2023-02-07T05:28:48;29.33;;;14.55;;
62687;SDS011;48752;51.056;17.056;2023-02-07T05:31:14;24.60;;;14.38;;
62687;SDS011;48752;51.056;17.056;2023-02-07T05:33:43;27.33;;;15.82;;
62687;SDS011;48752;51.056;17.056;2023-02-07T05:36:09;24.85;;;14.63;;
62687;SDS011;48752;51.056;17.056;2023-02-07T05:38:35;29.00;;;15.45;;
62687;SDS011;48752;51.056;17.056;2023-02-07T05:41:01;26.02;;;14.43;;
62687;SDS011;48752;51.056;17.056;2023-02-07T05:43:28;29.52;;;15.32;;
62687;SDS011;48752;51.056;17.056;2023-02-07T05:45:59;29.27;;;15.57;;
62687;SDS011;48752;51.056;17.056;2023-02-07T05:48:25;28.08;;;15.57;;
62687;SDS011;48752;51.056;17.056;2023-02-07T05:50:55;27.13;;;16.20;;
62687;SDS011;48752;51.056;17.056;2023-02-07T05:53:21;28.63;;;16.02;;
62687;SDS011;48752;51.056;17.056;2023-02-07T05:55:49;32.53;;;16.27;;
62687;SDS011;48752;51.056;17.056;2023-02-07T05:58:29;47.38;;;19.08;;
62687;SDS011;48752;51.056;17.056;2023-02-07T06:00:56;42.08;;;20.42;;
62687;SDS011;48752;51.056;17.056;2023-02-07T06:03:22;36.22;;;20.60;;
62687;SDS011;48752;51.056;17.056;2023-02-07T06:05:48;39.90;;;20.52;;
62687;SDS011;48752;51.056;17.056;2023-02-07T06:08:13;51.05;;;23.50;;
62687;SDS011;48752;51.056;17.056;2023-02-07T06:10:38;63.85;;;26.30;;
62687;SDS011;48752;51.056;17.056;2023-02-07T06:13:04;62.58;;;25.65;;
62687;SDS011;48752;51.056;17.056;2023-02-07T06:15:29;54.97;;;24.10;;
62687;SDS011;48752;51.056;17.056;2023-02-07T06:17:55;52.78;;;24.10;;
62687;SDS011;48752;51.056;17.056;2023-02-07T06:20:22;56.38;;;24.35;;
62687;SDS011;48752;51.056;17.056;2023-02-07T06:22:49;56.25;;;23.38;;
62687;SDS011;48752;51.056;17.056;2023-02-07T06:25:17;54.05;;;24.70;;
62687;SDS011;48752;51.056;17.056;2023-02-07T06:27:44;50.63;;;24.98;;
62687;SDS011;48752;51.056;17.056;2023-02-07T06:30:17;58.17;;;25.42;;
62687;SDS011;48752;51.056;17.056;2023-02-07T06:32:47;61.20;;;24.48;;
62687;SDS011;48752;51.056;17.056;2023-02-07T06:37:44;49.38;;;23.23;;
62687;SDS011;48752;51.056;17.056;2023-02-07T06:40:11;61.00;;;25.27;;
62687;SDS011;48752;51.056;17.056;2023-02-07T06:42:36;59.60;;;25.38;;
62687;SDS011;48752;51.056;17.056;2023-02-07T06:45:02;58.67;;;24.65;;
62687;SDS011;48752;51.056;17.056;2023-02-07T06:47:28;56.63;;;24.92;;
62687;SDS011;48752;51.056;17.056;2023-02-07T06:49:53;52.63;;;24.92;;
62687;SDS011;48752;51.056;17.056;2023-02-07T06:52:18;54.40;;;26.08;;
62687;SDS011;48752;51.056;17.056;2023-02-07T06:54:44;56.95;;;26.38;;
62687;SDS011;48752;51.056;17.056;2023-02-07T06:57:09;59.60;;;26.15;;
62687;SDS011;48752;51.056;17.056;2023-02-07T06:59:35;47.00;;;24.52;;
62687;SDS011;48752;51.056;17.056;2023-02-07T07:02:00;55.83;;;26.23;;
62687;SDS011;48752;51.056;17.056;2023-02-07T07:04:27;51.13;;;25.75;;
62687;SDS011;48752;51.056;17.056;2023-02-07T07:06:53;50.95;;;25.52;;
62687;SDS011;48752;51.056;17.056;2023-02-07T07:09:18;53.08;;;24.83;;
62687;SDS011;48752;51.056;17.056;2023-02-07T07:11:43;52.67;;;25.70;;
62687;SDS011;48752;51.056;17.056;2023-02-07T07:14:09;57.10;;;26.25;;
62687;SDS011;48752;51.056;17.056;2023-02-07T07:16:35;52.28;;;27.42;;
62687;SDS011;48752;51.056;17.056;2023-02-07T07:19:00;54.38;;;27.42;;
62687;SDS011;48752;51.056;17.056;2023-02-07T07:21:26;55.25;;;26.65;;
62687;SDS011;48752;51.056;17.056;2023-02-07T07:23:52;54.08;;;26.13;;
62687;SDS011;48752;51.056;17.056;2023-02-07T07:26:18;51.00;;;25.58;;
62687;SDS011;48752;51.056;17.056;2023-02-07T07:28:44;47.00;;;26.08;;
62687;SDS011;48752;51.056;17.056;2023-02-07T07:31:09;50.17;;;25.63;;
62687;SDS011;48752;51.056;17.056;2023-02-07T07:33:35;56.00;;;25.08;;
62687;SDS011;48752;51.056;17.056;2023-02-07T07:36:01;45.58;;;24.15;;
62687;SDS011;48752;51.056;17.056;2023-02-07T07:38:27;47.78;;;23.33;;
62687;SDS011;48752;51.056;17.056;2023-02-07T07:40:52;47.10;;;24.80;;
62687;SDS011;48752;51.056;17.056;2023-02-07T07:43:18;53.15;;;24.17;;
62687;SDS011;48752;51.056;17.056;2023-02-07T07:45:44;48.60;;;25.60;;
62687;SDS011;48752;51.056;17.056;2023-02-07T07:48:10;40.00;;;22.85;;
62687;SDS011;48752;51.056;17.056;2023-02-07T07:50:35;49.67;;;25.85;;
62687;SDS011;48752;51.056;17.056;2023-02-07T07:53:01;44.13;;;24.85;;
62687;SDS011;48752;51.056;17.056;2023-02-07T07:55:26;45.90;;;23.33;;
62687;SDS011;48752;51.056;17.056;2023-02-07T07:57:52;47.30;;;24.52;;
62687;SDS011;48752;51.056;17.056;2023-02-07T08:00:17;50.13;;;26.83;;
62687;SDS011;48752;51.056;17.056;2023-02-07T08:02:44;50.35;;;28.13;;
62687;SDS011;48752;51.056;17.056;2023-02-07T08:05:09;61.65;;;33.40;;
62687;SDS011;48752;51.056;17.056;2023-02-07T08:07:36;71.38;;;36.10;;
62687;SDS011;48752;51.056;17.056;2023-02-07T08:10:03;71.55;;;37.72;;
62687;SDS011;48752;51.056;17.056;2023-02-07T08:12:30;68.55;;;36.78;;
62687;SDS011;48752;51.056;17.056;2023-02-07T08:14:55;71.72;;;39.20;;
62687;SDS011;48752;51.056;17.056;2023-02-07T08:17:22;72.57;;;38.00;;
62687;SDS011;48752;51.056;17.056;2023-02-07T08:19:48;69.32;;;36.38;;
62687;SDS011;48752;51.056;17.056;2023-02-07T08:22:14;68.78;;;38.28;;
62687;SDS011;48752;51.056;17.056;2023-02-07T08:24:40;73.10;;;36.17;;
62687;SDS011;48752;51.056;17.056;2023-02-07T08:27:06;67.13;;;35.22;;
62687;SDS011;48752;51.056;17.056;2023-02-07T08:29:33;67.15;;;34.08;;
62687;SDS011;48752;51.056;17.056;2023-02-07T08:32:00;67.43;;;36.25;;
62687;SDS011;48752;51.056;17.056;2023-02-07T08:34:29;65.88;;;35.63;;
62687;SDS011;48752;51.056;17.056;2023-02-07T08:37:01;70.82;;;34.65;;
62687;SDS011;48752;51.056;17.056;2023-02-07T08:39:27;62.65;;;34.67;;
62687;SDS011;48752;51.056;17.056;2023-02-07T08:41:54;59.60;;;32.85;;
62687;SDS011;48752;51.056;17.056;2023-02-07T08:44:20;65.90;;;33.47;;
62687;SDS011;48752;51.056;17.056;2023-02-07T08:46:47;58.33;;;31.35;;
62687;SDS011;48752;51.056;17.056;2023-02-07T08:49:12;57.13;;;30.70;;
62687;SDS011;48752;51.056;17.056;2023-02-07T08:51:38;58.08;;;31.05;;
62687;SDS011;48752;51.056;17.056;2023-02-07T08:54:06;52.58;;;29.92;;
62687;SDS011;48752;51.056;17.056;2023-02-07T08:56:37;54.63;;;30.97;;
62687;SDS011;48752;51.056;17.056;2023-02-07T08:59:09;51.55;;;28.33;;
62687;SDS011;48752;51.056;17.056;2023-02-07T09:01:36;47.65;;;28.98;;
62687;SDS011;48752;51.056;17.056;2023-02-07T09:04:02;53.67;;;30.08;;
62687;SDS011;48752;51.056;17.056;2023-02-07T09:06:29;56.63;;;28.55;;
62687;SDS011;48752;51.056;17.056;2023-02-07T09:08:55;54.13;;;30.48;;
62687;SDS011;48752;51.056;17.056;2023-02-07T09:11:21;53.08;;;29.50;;
62687;SDS011;48752;51.056;17.056;2023-02-07T09:13:47;55.95;;;28.92;;
62687;SDS011;48752;51.056;17.056;2023-02-07T09:16:15;58.55;;;29.38;;
62687;SDS011;48752;51.056;17.056;2023-02-07T09:18:40;57.88;;;29.63;;
62687;SDS011;48752;51.056;17.056;2023-02-07T09:21:07;50.38;;;28.98;;
62687;SDS011;48752;51.056;17.056;2023-02-07T09:23:33;49.25;;;28.02;;
62687;SDS011;48752;51.056;17.056;2023-02-07T09:26:04;47.88;;;27.50;;
62687;SDS011;48752;51.056;17.056;2023-02-07T09:28:30;50.67;;;28.77;;
62687;SDS011;48752;51.056;17.056;2023-02-07T09:30:57;47.42;;;27.30;;
62687;SDS011;48752;51.056;17.056;2023-02-07T09:33:23;43.97;;;25.80;;
62687;SDS011;48752;51.056;17.056;2023-02-07T09:35:49;50.08;;;28.55;;
62687;SDS011;48752;51.056;17.056;2023-02-07T09:38:17;49.17;;;26.38;;
62687;SDS011;48752;51.056;17.056;2023-02-07T09:40:46;45.00;;;26.00;;
62687;SDS011;48752;51.056;17.056;2023-02-07T09:45:55;43.45;;;24.95;;
62687;SDS011;48752;51.056;17.056;2023-02-07T09:51:20;42.30;;;24.83;;
62687;SDS011;48752;51.056;17.056;2023-02-07T09:53:55;43.75;;;25.08;;
62687;SDS011;48752;51.056;17.056;2023-02-07T09:56:28;42.60;;;24.33;;
62687;SDS011;48752;51.056;17.056;2023-02-07T10:01:44;40.28;;;22.45;;
62687;SDS011;48752;51.056;17.056;2023-02-07T10:06:56;36.85;;;22.75;;
62687;SDS011;48752;51.056;17.056;2023-02-07T10:09:24;40.35;;;22.98;;
62687;SDS011;48752;51.056;17.056;2023-02-07T10:12:26;45.08;;;23.30;;
62687;SDS011;48752;51.056;17.056;2023-02-07T10:15:20;40.17;;;21.58;;
62687;SDS011;48752;51.056;17.056;2023-02-07T10:18:16;42.92;;;23.35;;
62687;SDS011;48752;51.056;17.056;2023-02-07T10:26:57;40.70;;;21.85;;
62687;SDS011;48752;51.056;17.056;2023-02-07T10:32:10;40.92;;;22.60;;
62687;SDS011;48752;51.056;17.056;2023-02-07T10:34:40;34.20;;;20.63;;
62687;SDS011;48752;51.056;17.056;2023-02-07T10:37:22;37.17;;;20.05;;
62687;SDS011;48752;51.056;17.056;2023-02-07T10:42:36;32.60;;;20.52;;
62687;SDS011;48752;51.056;17.056;2023-02-07T10:45:21;29.85;;;18.02;;
62687;SDS011;48752;51.056;17.056;2023-02-07T10:47:48;30.92;;;18.52;;
62687;SDS011;48752;51.056;17.056;2023-02-07T10:50:18;34.05;;;19.58;;
62687;SDS011;48752;51.056;17.056;2023-02-07T10:55:36;32.25;;;18.65;;
62687;SDS011;48752;51.056;17.056;2023-02-07T10:58:03;34.47;;;17.60;;
62687;SDS011;48752;51.056;17.056;2023-02-07T11:00:30;28.83;;;17.98;;
62687;SDS011;48752;51.056;17.056;2023-02-07T11:03:03;31.02;;;18.33;;
62687;SDS011;48752;51.056;17.056;2023-02-07T11:05:34;29.40;;;17.42;;
62687;SDS011;48752;51.056;17.056;2023-02-07T11:10:38;28.13;;;18.08;;
62687;SDS011;48752;51.056;17.056;2023-02-07T11:15:47;31.23;;;18.05;;
62687;SDS011;48752;51.056;17.056;2023-02-07T11:18:26;29.45;;;16.45;;
62687;SDS011;48752;51.056;17.056;2023-02-07T11:21:01;29.63;;;16.45;;
62687;SDS011;48752;51.056;17.056;2023-02-07T11:23:27;29.50;;;17.23;;
62687;SDS011;48752;51.056;17.056;2023-02-07T11:25:54;27.13;;;16.55;;
62687;SDS011;48752;51.056;17.056;2023-02-07T11:28:26;28.45;;;15.98;;
62687;SDS011;48752;51.056;17.056;2023-02-07T11:30:54;26.05;;;15.48;;
62687;SDS011;48752;51.056;17.056;2023-02-07T11:33:23;24.73;;;15.55;;
62687;SDS011;48752;51.056;17.056;2023-02-07T11:38:46;28.85;;;16.08;;
62687;SDS011;48752;51.056;17.056;2023-02-07T11:41:21;23.92;;;14.45;;
62687;SDS011;48752;51.056;17.056;2023-02-07T11:43:53;27.00;;;14.80;;
62687;SDS011;48752;51.056;17.056;2023-02-07T11:46:36;23.08;;;14.35;;
62687;SDS011;48752;51.056;17.056;2023-02-07T11:52:00;27.23;;;14.95;;
62687;SDS011;48752;51.056;17.056;2023-02-07T11:54:28;23.55;;;14.27;;
62687;SDS011;48752;51.056;17.056;2023-02-07T11:57:09;27.60;;;14.45;;
62687;SDS011;48752;51.056;17.056;2023-02-07T11:59:45;20.73;;;13.25;;
62687;SDS011;48752;51.056;17.056;2023-02-07T12:02:22;24.60;;;14.75;;
62687;SDS011;48752;51.056;17.056;2023-02-07T12:04:50;21.52;;;13.60;;
62687;SDS011;48752;51.056;17.056;2023-02-07T12:07:31;22.17;;;13.40;;
62687;SDS011;48752;51.056;17.056;2023-02-07T12:10:19;22.05;;;14.23;;
62687;SDS011;48752;51.056;17.056;2023-02-07T12:12:55;20.63;;;13.27;;
62687;SDS011;48752;51.056;17.056;2023-02-07T12:16:02;20.85;;;12.85;;
62687;SDS011;48752;51.056;17.056;2023-02-07T12:18:40;20.52;;;12.40;;
62687;SDS011;48752;51.056;17.056;2023-02-07T12:27:08;20.13;;;12.55;;
62687;SDS011;48752;51.056;17.056;2023-02-07T12:32:32;19.88;;;12.07;;
62687;SDS011;48752;51.056;17.056;2023-02-07T12:40:38;19.33;;;11.35;;
62687;SDS011;48752;51.056;17.056;2023-02-07T12:51:32;18.65;;;10.85;;
62687;SDS011;48752;51.056;17.056;2023-02-07T13:03:21;17.88;;;10.88;;
62687;SDS011;48752;51.056;17.056;2023-02-07T13:06:14;15.27;;;10.73;;
62687;SDS011;48752;51.056;17.056;2023-02-07T13:22:45;17.70;;;10.07;;
62687;SDS011;48752;51.056;17.056;2023-02-07T13:28:05;17.85;;;10.55;;
62687;SDS011;48752;51.056;17.056;2023-02-07T13:30:38;14.63;;;10.43;;
62687;SDS011;48752;51.056;17.056;2023-02-07T13:33:19;20.35;;;9.95;;
62687;SDS011;48752;51.056;17.056;2023-02-07T13:36:06;15.40;;;10.18;;
62687;SDS011;48752;51.056;17.056;2023-02-07T13:39:23;14.57;;;9.40;;
62687;SDS011;48752;51.056;17.056;2023-02-07T13:42:18;16.85;;;9.02;;
62687;SDS011;48752;51.056;17.056;2023-02-07T13:55:23;13.73;;;9.45;;
62687;SDS011;48752;51.056;17.056;2023-02-07T13:57:51;14.98;;;9.10;;
62687;SDS011;48752;51.056;17.056;2023-02-07T14:03:31;12.93;;;8.18;;
62687;SDS011;48752;51.056;17.056;2023-02-07T14:09:00;14.43;;;9.20;;
62687;SDS011;48752;51.056;17.056;2023-02-07T14:11:40;13.50;;;8.65;;
62687;SDS011;48752;51.056;17.056;2023-02-07T14:16:46;15.38;;;8.65;;
62687;SDS011;48752;51.056;17.056;2023-02-07T14:19:14;12.07;;;8.20;;
62687;SDS011;48752;51.056;17.056;2023-02-07T14:21:42;12.27;;;8.40;;
62687;SDS011;48752;51.056;17.056;2023-02-07T14:34:20;12.30;;;8.32;;
62687;SDS011;48752;51.056;17.056;2023-02-07T14:36:48;14.27;;;9.30;;
62687;SDS011;48752;51.056;17.056;2023-02-07T14:41:42;13.18;;;7.93;;
62687;SDS011;48752;51.056;17.056;2023-02-07T14:44:19;11.93;;;7.95;;
62687;SDS011;48752;51.056;17.056;2023-02-07T14:47:02;12.32;;;8.30;;
62687;SDS011;48752;51.056;17.056;2023-02-07T14:52:11;14.05;;;8.05;;
62687;SDS011;48752;51.056;17.056;2023-02-07T15:03:15;14.57;;;8.40;;
62687;SDS011;48752;51.056;17.056;2023-02-07T15:05:50;16.88;;;8.07;;
62687;SDS011;48752;51.056;17.056;2023-02-07T15:08:22;12.63;;;7.80;;
62687;SDS011;48752;51.056;17.056;2023-02-07T15:10:54;19.90;;;8.65;;
62687;SDS011;48752;51.056;17.056;2023-02-07T15:15:50;14.85;;;8.63;;
62687;SDS011;48752;51.056;17.056;2023-02-07T15:18:18;17.38;;;10.15;;
62687;SDS011;48752;51.056;17.056;2023-02-07T15:20:50;15.50;;;9.05;;
62687;SDS011;48752;51.056;17.056;2023-02-07T15:23:25;17.92;;;10.07;;
62687;SDS011;48752;51.056;17.056;2023-02-07T15:26:21;15.05;;;8.82;;
62687;SDS011;48752;51.056;17.056;2023-02-07T15:28:46;15.57;;;9.77;;
62687;SDS011;48752;51.056;17.056;2023-02-07T15:31:21;17.17;;;8.38;;
62687;SDS011;48752;51.056;17.056;2023-02-07T15:38:58;16.73;;;8.95;;
62687;SDS011;48752;51.056;17.056;2023-02-07T15:41:57;17.08;;;8.77;;
62687;SDS011;48752;51.056;17.056;2023-02-07T15:47:01;16.98;;;8.35;;
62687;SDS011;48752;51.056;17.056;2023-02-07T15:49:33;16.75;;;8.90;;
62687;SDS011;48752;51.056;17.056;2023-02-07T15:52:03;15.77;;;8.65;;
62687;SDS011;48752;51.056;17.056;2023-02-07T15:54:38;19.83;;;8.93;;
62687;SDS011;48752;51.056;17.056;2023-02-07T15:57:14;15.70;;;9.40;;
62687;SDS011;48752;51.056;17.056;2023-02-07T16:00:04;17.60;;;8.57;;
62687;SDS011;48752;51.056;17.056;2023-02-07T16:02:54;18.35;;;9.30;;
62687;SDS011;48752;51.056;17.056;2023-02-07T16:05:33;19.30;;;8.88;;
62687;SDS011;48752;51.056;17.056;2023-02-07T16:08:03;14.63;;;8.68;;
62687;SDS011;48752;51.056;17.056;2023-02-07T16:11:33;19.45;;;8.65;;
62687;SDS011;48752;51.056;17.056;2023-02-07T16:16:40;13.65;;;8.48;;
62687;SDS011;48752;51.056;17.056;2023-02-07T16:19:30;15.93;;;7.90;;
62687;SDS011;48752;51.056;17.056;2023-02-07T16:24:30;12.82;;;8.18;;
62687;SDS011;48752;51.056;17.056;2023-02-07T16:27:05;13.02;;;7.97;;
62687;SDS011;48752;51.056;17.056;2023-02-07T16:29:33;19.60;;;8.95;;
62687;SDS011;48752;51.056;17.056;2023-02-07T16:32:11;18.23;;;8.75;;
62687;SDS011;48752;51.056;17.056;2023-02-07T16:34:52;15.52;;;9.02;;
62687;SDS011;48752;51.056;17.056;2023-02-07T16:37:19;17.25;;;8.77;;
62687;SDS011;48752;51.056;17.056;2023-02-07T16:39:45;14.50;;;8.68;;
62687;SDS011;48752;51.056;17.056;2023-02-07T16:42:13;15.38;;;8.00;;
62687;SDS011;48752;51.056;17.056;2023-02-07T16:44:41;15.38;;;8.23;;
62687;SDS011;48752;51.056;17.056;2023-02-07T16:47:11;15.07;;;8.13;;
62687;SDS011;48752;51.056;17.056;2023-02-07T16:49:38;23.73;;;8.90;;
62687;SDS011;48752;51.056;17.056;2023-02-07T16:52:04;15.52;;;7.32;;
62687;SDS011;48752;51.056;17.056;2023-02-07T16:54:29;19.30;;;8.38;;
62687;SDS011;48752;51.056;17.056;2023-02-07T16:56:56;21.60;;;8.02;;
62687;SDS011;48752;51.056;17.056;2023-02-07T16:59:23;16.48;;;7.88;;
62687;SDS011;48752;51.056;17.056;2023-02-07T17:01:50;17.73;;;7.72;;
62687;SDS011;48752;51.056;17.056;2023-02-07T17:04:18;14.57;;;8.13;;
62687;SDS011;48752;51.056;17.056;2023-02-07T17:06:46;18.48;;;7.75;;
62687;SDS011;48752;51.056;17.056;2023-02-07T17:09:17;18.52;;;8.23;;
62687;SDS011;48752;51.056;17.056;2023-02-07T17:11:49;13.20;;;7.55;;
62687;SDS011;48752;51.056;17.056;2023-02-07T17:14:24;20.30;;;8.38;;
62687;SDS011;48752;51.056;17.056;2023-02-07T17:16:55;13.63;;;7.47;;
62687;SDS011;48752;51.056;17.056;2023-02-07T17:19:21;23.67;;;9.70;;
62687;SDS011;48752;51.056;17.056;2023-02-07T17:21:47;20.45;;;8.32;;
62687;SDS011;48752;51.056;17.056;2023-02-07T17:24:14;21.60;;;9.23;;
62687;SDS011;48752;51.056;17.056;2023-02-07T17:26:41;26.10;;;9.82;;
62687;SDS011;48752;51.056;17.056;2023-02-07T17:29:12;27.40;;;10.52;;
62687;SDS011;48752;51.056;17.056;2023-02-07T17:31:39;33.30;;;11.32;;
62687;SDS011;48752;51.056;17.056;2023-02-07T17:34:05;24.00;;;10.98;;